createdAt,value
2023-01-30T00:01:35.962Z,-4.35
2023-01-30T00:04:40.906Z,-5.25
2023-01-30T00:07:45.564Z,-6.21
2023-01-30T00:10:54.982Z,-5.45
2023-01-30T00:14:01.336Z,-5.49
2023-01-30T00:17:07.403Z,-4.60
2023-01-30T00:20:14.788Z,-4.51
2023-01-30T00:23:20.335Z,-3.95
2023-01-30T00:26:24.879Z,-4.04
2023-01-30T00:29:30.032Z,-4.30
2023-01-30T00:32:34.427Z,-4.55
2023-01-30T00:35:48.881Z,-3.75
2023-01-30T00:38:53.572Z,-3.79
2023-01-30T00:42:17.019Z,-4.37
2023-01-30T00:45:40.280Z,-4.53
2023-01-30T00:48:55.276Z,-5.62
2023-01-30T00:52:00.224Z,-5.71
2023-01-30T00:55:07.543Z,-5.21
2023-01-30T00:58:24.349Z,-5.14
2023-01-30T01:01:38.583Z,-5.15
2023-01-30T01:04:45.552Z,-4.97
2023-01-30T01:07:50.158Z,-5.77
2023-01-30T01:10:55.193Z,-5.05
2023-01-30T01:14:06.459Z,-5.45
2023-01-30T01:17:11.619Z,-5.27
2023-01-30T01:20:16.814Z,-4.78
2023-01-30T01:23:21.476Z,-4.66
2023-01-30T01:26:28.277Z,-5.40
2023-01-30T01:29:33.305Z,-6.12
2023-01-30T01:32:38.030Z,-5.21
2023-01-30T01:35:50.314Z,-4.68
2023-01-30T01:38:59.738Z,-4.85
2023-01-30T01:42:04.826Z,-4.47
2023-01-30T01:45:16.708Z,-5.25
2023-01-30T01:48:36.325Z,-5.59
2023-01-30T01:52:05.962Z,-5.98
2023-01-30T01:55:11.221Z,-5.82
2023-01-30T01:58:23.029Z,-6.63
2023-01-30T02:01:38.053Z,-6.22
2023-01-30T02:05:07.059Z,-6.00
2023-01-30T02:08:24.296Z,-6.27
2023-01-30T02:11:50.284Z,-5.96
2023-01-30T02:14:57.395Z,-6.51
2023-01-30T02:18:22.258Z,-5.97
2023-01-30T02:21:48.721Z,-6.01
2023-01-30T02:25:19.954Z,-6.34
2023-01-30T02:28:42.201Z,-6.16
2023-01-30T02:32:26.666Z,-6.43
2023-01-30T02:35:51.502Z,-5.78
2023-01-30T02:39:19.524Z,-5.30
2023-01-30T02:42:39.824Z,-5.40
2023-01-30T02:45:54.898Z,-5.61
2023-01-30T02:56:53.409Z,-4.91
2023-01-30T03:00:05.639Z,-5.02
2023-01-30T03:03:20.446Z,-5.04
2023-01-30T03:10:52.774Z,-4.73
2023-01-30T03:14:22.048Z,-4.92
2023-01-30T03:17:30.139Z,-5.65
2023-01-30T03:20:42.293Z,-6.51
2023-01-30T03:23:49.662Z,-6.96
2023-01-30T03:27:06.367Z,-6.19
2023-01-30T03:30:21.753Z,-6.32
2023-01-30T03:33:31.113Z,-6.77
2023-01-30T03:36:36.399Z,-6.57
2023-01-30T03:39:45.338Z,-6.16
2023-01-30T03:42:57.656Z,-4.87
2023-01-30T03:46:02.317Z,-5.30
2023-01-30T03:49:07.239Z,-5.35
2023-01-30T03:52:16.989Z,-4.99
2023-01-30T03:55:32.247Z,-5.20
2023-01-30T03:58:48.202Z,-5.51
2023-01-30T04:02:01.277Z,-4.68
2023-01-30T04:05:06.720Z,-4.67
2023-01-30T04:08:21.712Z,-4.29
2023-01-30T04:11:26.770Z,-3.81
2023-01-30T04:14:31.246Z,-3.28
2023-01-30T04:17:54.405Z,-3.10
2023-01-30T04:21:17.387Z,-3.42
2023-01-30T04:24:26.543Z,-3.74
2023-01-30T04:27:31.256Z,-3.55
2023-01-30T04:31:02.471Z,-4.29
2023-01-30T04:34:16.312Z,-3.22
2023-01-30T04:37:20.965Z,-4.22
2023-01-30T04:40:26.643Z,-3.41
2023-01-30T04:43:38.245Z,-2.96
2023-01-30T04:47:01.388Z,-2.47
2023-01-30T04:50:16.167Z,-2.99
2023-01-30T04:53:21.508Z,-2.71
2023-01-30T04:56:27.680Z,-2.64
2023-01-30T04:59:32.732Z,-1.60
2023-01-30T05:02:41.128Z,-2.33
2023-01-30T05:05:48.479Z,-1.53
2023-01-30T05:08:54.699Z,-1.67
2023-01-30T05:12:05.365Z,-2.33
2023-01-30T05:15:11.049Z,-2.50
2023-01-30T05:18:26.074Z,-1.93
2023-01-30T05:21:36.237Z,-1.99
2023-01-30T05:24:40.705Z,-2.07
2023-01-30T05:27:45.076Z,-2.33
2023-01-30T05:30:49.354Z,-2.00
2023-01-30T05:33:58.819Z,-2.24
2023-01-30T05:37:03.812Z,-1.68
2023-01-30T05:40:14.262Z,-1.09
2023-01-30T05:43:18.982Z,-0.62
2023-01-30T05:46:35.877Z,-1.78
2023-01-30T05:49:40.168Z,-1.34
2023-01-30T05:52:50.001Z,-1.43
2023-01-30T05:55:59.482Z,-0.28
2023-01-30T05:59:05.980Z,-0.24
2023-01-30T06:02:11.897Z,-0.61
2023-01-30T06:05:19.068Z,-0.60
2023-01-30T06:08:24.193Z,-0.17
2023-01-30T06:11:28.707Z,-0.60
2023-01-30T06:14:33.767Z,-0.95
2023-01-30T06:17:38.019Z,-1.61
2023-01-30T06:20:53.631Z,-0.10
2023-01-30T06:23:58.324Z,-0.35
2023-01-30T06:27:03.250Z,0.34
2023-01-30T06:30:07.967Z,-0.09
2023-01-30T06:33:12.531Z,0.12
2023-01-30T06:36:17.288Z,-0.14
2023-01-30T06:39:21.813Z,0.37
2023-01-30T06:42:31.521Z,0.47
2023-01-30T06:45:38.019Z,-0.43
2023-01-30T06:48:47.857Z,0.26
2023-01-30T06:51:52.280Z,0.30
2023-01-30T06:54:57.464Z,1.07
2023-01-30T06:58:14.131Z,0.40
2023-01-30T07:01:23.237Z,-0.08
2023-01-30T07:04:28.316Z,0.43
2023-01-30T07:07:36.403Z,0.61
2023-01-30T07:10:52.613Z,1.55
2023-01-30T07:13:57.970Z,1.64
2023-01-30T07:17:04.854Z,1.99
2023-01-30T07:20:19.085Z,1.53
2023-01-30T07:23:29.503Z,3.61
2023-01-30T07:26:34.000Z,3.70
2023-01-30T07:29:39.752Z,4.01
2023-01-30T07:32:44.306Z,2.63
2023-01-30T07:35:49.141Z,0.38
2023-01-30T07:38:53.349Z,0.96
2023-01-30T07:42:01.199Z,0.79
2023-01-30T07:45:06.667Z,-0.72
2023-01-30T07:48:14.302Z,-0.61
2023-01-30T07:51:19.056Z,0.59
2023-01-30T07:54:24.390Z,0.39
2023-01-30T07:57:30.538Z,0.84
2023-01-30T08:00:39.125Z,0.50
2023-01-30T08:03:46.334Z,1.93
2023-01-30T08:06:55.470Z,2.64
2023-01-30T08:10:01.104Z,2.28
2023-01-30T08:13:11.275Z,2.36
2023-01-30T08:16:16.464Z,1.58
2023-01-30T08:19:21.774Z,2.78
2023-01-30T08:22:32.155Z,3.72
2023-01-30T08:25:44.215Z,3.22
2023-01-30T08:28:49.140Z,2.36
2023-01-30T08:31:59.092Z,1.61
2023-01-30T08:35:03.609Z,2.70
2023-01-30T08:38:12.467Z,2.45
2023-01-30T08:41:28.684Z,1.89
2023-01-30T08:44:34.301Z,1.55
2023-01-30T08:47:38.729Z,1.90
2023-01-30T08:50:43.577Z,1.44
2023-01-30T08:53:49.610Z,1.37
2023-01-30T08:56:55.295Z,1.87
2023-01-30T08:59:59.972Z,0.07
2023-01-30T09:03:04.687Z,0.34
2023-01-30T09:06:10.476Z,0.26
2023-01-30T09:09:20.414Z,-0.02
2023-01-30T09:12:35.727Z,-0.16
2023-01-30T09:15:43.524Z,-0.15
2023-01-30T09:18:52.277Z,0.37
2023-01-30T09:22:01.771Z,0.23
2023-01-30T09:25:16.788Z,0.76
2023-01-30T09:28:31.516Z,-0.11
2023-01-30T09:31:36.572Z,2.39
2023-01-30T09:34:47.243Z,1.85
2023-01-30T09:38:02.060Z,1.66
2023-01-30T09:41:54.217Z,1.37
2023-01-30T09:45:15.754Z,0.98
2023-01-30T09:48:55.378Z,0.70
2023-01-30T09:52:35.808Z,1.54
2023-01-30T09:55:42.783Z,1.10
2023-01-30T09:58:52.627Z,1.99
2023-01-30T10:02:32.154Z,2.00
2023-01-30T10:05:48.986Z,2.66
2023-01-30T10:16:48.952Z,-0.07
2023-01-30T10:24:25.019Z,0.31
2023-01-30T10:27:33.128Z,0.92
2023-01-30T10:30:52.332Z,0.75
2023-01-30T10:34:03.953Z,1.18
2023-01-30T10:37:21.185Z,0.41
2023-01-30T10:40:43.380Z,-0.10
2023-01-30T10:44:10.377Z,-0.22
2023-01-30T10:47:48.155Z,0.21
2023-01-30T10:51:00.535Z,0.73
2023-01-30T10:54:19.385Z,0.94
2023-01-30T10:57:44.133Z,-0.08
2023-01-30T11:01:02.775Z,-0.24
2023-01-30T11:04:51.709Z,0.54
2023-01-30T11:07:56.131Z,0.70
2023-01-30T11:11:21.836Z,-0.39
2023-01-30T11:15:00.874Z,-0.14
2023-01-30T11:18:50.943Z,-0.46
2023-01-30T11:21:54.387Z,-1.21
2023-01-30T11:25:18.602Z,-0.56
2023-01-30T11:28:29.080Z,-1.42
2023-01-30T11:31:51.593Z,-0.95
2023-01-30T11:35:28.593Z,-1.25
2023-01-30T11:38:36.317Z,-1.53
2023-01-30T11:41:44.727Z,-1.64
2023-01-30T11:45:15.716Z,-1.51
2023-01-30T11:49:03.545Z,-0.28
2023-01-30T11:52:02.984Z,-1.79
2023-01-30T11:55:14.689Z,-0.87
2023-01-30T11:58:19.756Z,-1.28
2023-01-30T12:01:33.703Z,-0.49
2023-01-30T12:04:54.364Z,-1.77
2023-01-30T12:08:39.484Z,-1.82
2023-01-30T12:11:45.677Z,-2.35
2023-01-30T12:15:31.645Z,-2.00
2023-01-30T12:18:51.933Z,-1.71
2023-01-30T12:22:09.085Z,-1.95
2023-01-30T12:25:24.105Z,-1.89
2023-01-30T12:28:42.942Z,-1.37
2023-01-30T12:31:55.728Z,-1.55
2023-01-30T12:35:19.741Z,-2.20
2023-01-30T12:39:04.406Z,-1.85
2023-01-30T12:42:18.645Z,-1.75
2023-01-30T12:45:29.314Z,-2.36
2023-01-30T12:49:13.217Z,-1.50
2023-01-30T12:52:21.776Z,-2.36
2023-01-30T12:55:59.659Z,-2.69
2023-01-30T12:59:22.762Z,-2.31
2023-01-30T13:02:40.656Z,-1.89
2023-01-30T13:06:01.823Z,-2.41
2023-01-30T13:09:33.832Z,-3.11
2023-01-30T13:12:43.985Z,-2.70
2023-01-30T13:16:05.012Z,-2.59
2023-01-30T13:19:41.235Z,-2.79
2023-01-30T13:22:48.665Z,-3.02
2023-01-30T13:26:16.852Z,-3.26
2023-01-30T13:29:29.429Z,-2.19
2023-01-30T13:32:56.894Z,-3.40
2023-01-30T13:36:19.401Z,-2.15
2023-01-30T13:39:44.285Z,-2.83
2023-01-30T13:43:36.902Z,-3.15
2023-01-30T13:46:42.401Z,-2.60
2023-01-30T13:50:07.012Z,-3.24
2023-01-30T13:53:40.326Z,-2.98
2023-01-30T13:56:57.865Z,-3.16
2023-01-30T14:00:27.111Z,-3.42
2023-01-30T14:03:36.328Z,-3.41
2023-01-30T14:06:41.274Z,-3.11
2023-01-30T14:13:31.276Z,-3.53
2023-01-30T14:16:48.392Z,-3.03
2023-01-30T14:20:20.761Z,-2.91
2023-01-30T14:23:35.647Z,-2.87
2023-01-30T14:26:59.489Z,-2.61
2023-01-30T14:30:38.245Z,-2.51
2023-01-30T14:33:54.741Z,-4.38
2023-01-30T14:37:01.570Z,-3.26
2023-01-30T14:40:24.908Z,-3.03
2023-01-30T14:43:43.708Z,-3.61
2023-01-30T14:46:56.923Z,-3.32
2023-01-30T14:50:03.405Z,-2.89
2023-01-30T14:53:14.525Z,-2.76
2023-01-30T14:56:36.919Z,-3.65
2023-01-30T15:00:14.260Z,-3.56
2023-01-30T15:03:21.334Z,-3.93
2023-01-30T15:06:27.803Z,-3.07
2023-01-30T15:09:51.422Z,-3.48
2023-01-30T15:13:41.441Z,-3.28
2023-01-30T15:17:06.171Z,-3.51
2023-01-30T15:20:35.312Z,-3.48
2023-01-30T15:24:20.274Z,-3.42
2023-01-30T15:27:58.438Z,-3.44
2023-01-30T15:31:18.985Z,-4.02
2023-01-30T15:34:31.681Z,-3.83
2023-01-30T15:37:44.884Z,-3.79
2023-01-30T15:40:49.199Z,-4.07
2023-01-30T15:44:32.856Z,-4.53
2023-01-30T15:47:51.421Z,-4.39
2023-01-30T15:51:02.344Z,-3.95
2023-01-30T15:54:17.521Z,-4.58
2023-01-30T15:57:30.069Z,-4.28
2023-01-30T16:00:41.609Z,-4.32
2023-01-30T16:03:46.615Z,-4.49
2023-01-30T16:06:59.651Z,-4.11
2023-01-30T16:10:19.330Z,-5.31
2023-01-30T16:13:28.035Z,-4.53
2023-01-30T16:16:36.394Z,-4.30
2023-01-30T16:19:41.021Z,-4.35
2023-01-30T16:22:48.548Z,-4.85
2023-01-30T16:25:55.580Z,-5.43
2023-01-30T16:29:18.616Z,-4.65
2023-01-30T16:32:30.995Z,-5.67
2023-01-30T16:35:48.632Z,-5.03
2023-01-30T16:38:58.249Z,-5.06
2023-01-30T16:42:33.756Z,-5.20
2023-01-30T16:45:55.563Z,-5.37
2023-01-30T16:52:56.632Z,-6.23
2023-01-30T16:56:17.591Z,-5.93
2023-01-30T16:59:34.927Z,-5.73
2023-01-30T17:02:42.983Z,-6.14
2023-01-30T17:05:52.324Z,-5.98
2023-01-30T17:09:00.345Z,-5.88
2023-01-30T17:12:43.736Z,-5.84
2023-01-30T17:15:47.952Z,-6.87
2023-01-30T17:19:00.095Z,-6.68
2023-01-30T17:22:08.687Z,-6.90
2023-01-30T17:25:28.153Z,-7.20
2023-01-30T17:28:41.986Z,-7.31
2023-01-30T17:31:51.350Z,-8.14
2023-01-30T17:34:56.557Z,-8.45
2023-01-30T17:38:05.560Z,-8.89
2023-01-30T17:41:22.581Z,-8.36
2023-01-30T17:44:32.147Z,-8.94
2023-01-30T17:47:36.793Z,-8.90
2023-01-30T17:50:40.777Z,-8.62
2023-01-30T17:53:45.185Z,-8.94
2023-01-30T17:57:04.317Z,-8.60
2023-01-30T18:00:12.233Z,-8.24
2023-01-30T18:03:16.354Z,-7.56
2023-01-30T18:06:20.418Z,-7.04
2023-01-30T18:09:34.593Z,-6.79
2023-01-30T18:12:48.567Z,-7.63
2023-01-30T18:16:01.588Z,-7.82
2023-01-30T18:19:10.120Z,-7.46
2023-01-30T18:22:14.084Z,-8.00
2023-01-30T18:25:19.181Z,-8.33
2023-01-30T18:28:23.881Z,-7.73
2023-01-30T18:31:32.241Z,-8.21
2023-01-30T18:34:38.149Z,-8.29
2023-01-30T18:37:43.241Z,-7.92
2023-01-30T18:40:56.309Z,-7.64
2023-01-30T18:44:07.164Z,-7.71
2023-01-30T18:47:27.034Z,-8.43
2023-01-30T18:50:37.913Z,-7.92
2023-01-30T18:53:43.465Z,-7.87
2023-01-30T18:56:53.631Z,-8.08
2023-01-30T18:59:59.904Z,-8.88
2023-01-30T19:03:05.058Z,-8.23
2023-01-30T19:06:11.898Z,-7.82
2023-01-30T19:09:27.626Z,-7.49
2023-01-30T19:12:49.802Z,-7.19
2023-01-30T19:15:59.075Z,-7.75
2023-01-30T19:19:03.300Z,-7.05
2023-01-30T19:22:07.510Z,-7.49
2023-01-30T19:25:11.678Z,-6.91
2023-01-30T19:28:22.354Z,-7.20
2023-01-30T19:31:36.591Z,-7.34
2023-01-30T19:34:41.406Z,-7.15
2023-01-30T19:37:45.916Z,-7.18
2023-01-30T19:40:54.781Z,-7.35
2023-01-30T19:44:02.216Z,-6.71
2023-01-30T19:47:06.045Z,-6.92
2023-01-30T19:50:10.842Z,-7.96
2023-01-30T19:53:15.054Z,-8.06
2023-01-30T19:56:22.144Z,-7.80
2023-01-30T19:59:25.782Z,-7.41
2023-01-30T20:02:30.231Z,-7.10
2023-01-30T20:05:34.782Z,-7.14
2023-01-30T20:09:00.321Z,-7.56
2023-01-30T20:12:09.564Z,-6.97
2023-01-30T20:15:13.943Z,-7.91
2023-01-30T20:18:18.047Z,-7.44
2023-01-30T20:21:22.551Z,-7.71
2023-01-30T20:24:27.723Z,-8.19
2023-01-30T20:27:32.865Z,-8.79
2023-01-30T20:30:39.307Z,-7.73
2023-01-30T20:33:51.620Z,-7.87
2023-01-30T20:37:01.502Z,-7.54
2023-01-30T20:40:06.247Z,-7.96
2023-01-30T20:43:20.043Z,-7.55
2023-01-30T20:46:27.680Z,-6.72
2023-01-30T20:49:41.832Z,-6.84
2023-01-30T20:52:45.930Z,-8.02
2023-01-30T20:55:58.905Z,-7.18
2023-01-30T20:59:15.589Z,-6.75
2023-01-30T21:02:19.245Z,-7.65
2023-01-30T21:05:23.231Z,-7.48
2023-01-30T21:08:28.017Z,-7.47
2023-01-30T21:11:32.918Z,-7.57
2023-01-30T21:14:37.010Z,-7.38
2023-01-30T21:17:40.662Z,-7.08
2023-01-30T21:20:50.353Z,-7.21
2023-01-30T21:23:57.489Z,-7.41
2023-01-30T21:27:01.887Z,-7.91
2023-01-30T21:30:06.699Z,-8.25
2023-01-30T21:33:10.423Z,-6.61
2023-01-30T21:36:24.784Z,-6.95
2023-01-30T21:39:53.021Z,-6.44
2023-01-30T21:43:15.179Z,-7.92
2023-01-30T21:46:19.218Z,-7.58
2023-01-30T21:49:28.544Z,-7.56
2023-01-30T21:52:37.905Z,-8.03
2023-01-30T21:55:42.287Z,-8.25
2023-01-30T21:58:56.777Z,-8.20
2023-01-30T22:02:01.104Z,-7.56
2023-01-30T22:05:08.565Z,-6.83
2023-01-30T22:08:12.633Z,-7.40
2023-01-30T22:11:21.917Z,-7.88
2023-01-30T22:14:31.411Z,-6.69
2023-01-30T22:17:37.435Z,-7.15
2023-01-30T22:20:51.372Z,-6.81
2023-01-30T22:23:56.403Z,-7.02
2023-01-30T22:27:00.058Z,-7.15
2023-01-30T22:30:14.005Z,-7.14
2023-01-30T22:33:18.438Z,-7.47
2023-01-30T22:36:28.647Z,-7.92
2023-01-30T22:39:32.778Z,-9.12
2023-01-30T22:42:37.187Z,-7.66
2023-01-30T22:45:41.130Z,-8.67
2023-01-30T22:48:46.567Z,-8.63
2023-01-30T22:52:02.058Z,-8.70
2023-01-30T22:55:06.244Z,-8.36
2023-01-30T22:58:20.190Z,-9.08
2023-01-30T23:01:31.050Z,-9.34
2023-01-30T23:04:35.778Z,-9.11
2023-01-30T23:07:40.053Z,-8.53
2023-01-30T23:10:44.527Z,-9.33
2023-01-30T23:14:21.521Z,-9.09
2023-01-30T23:17:54.494Z,-9.20
2023-01-30T23:20:59.890Z,-9.20
2023-01-30T23:24:07.487Z,-10.33
2023-01-30T23:27:21.790Z,-9.92
2023-01-30T23:30:26.055Z,-9.54
2023-01-30T23:33:30.236Z,-8.80
2023-01-30T23:36:35.522Z,-9.56
2023-01-30T23:39:39.205Z,-9.53
2023-01-30T23:42:54.340Z,-9.48
2023-01-30T23:46:13.514Z,-9.45
2023-01-30T23:49:19.686Z,-9.29
2023-01-30T23:52:35.168Z,-9.07
2023-01-30T23:55:39.162Z,-9.40
2023-01-30T23:58:53.317Z,-9.77
